sensor_id;sensor_type;location;lat;lon;timestamp;pressure;altitude;pressure_sealevel;temperature;humidity
50430;BME280;36359;41.556;-8.418;2023-05-25T00:01:33;99987.88;;;20.48;80.58
50430;BME280;36359;41.556;-8.418;2023-05-25T00:03:59;99988.28;;;20.51;80.42
50430;BME280;36359;41.556;-8.418;2023-05-25T00:06:24;99993.13;;;20.56;80.21
50430;BME280;36359;41.556;-8.418;2023-05-25T00:08:50;99990.84;;;20.46;80.26
50430;BME280;36359;41.556;-8.418;2023-05-25T00:11:19;99994.44;;;20.53;79.52
50430;BME280;36359;41.556;-8.418;2023-05-25T00:13:47;99995.53;;;20.46;79.88
50430;BME280;36359;41.556;-8.418;2023-05-25T00:16:13;100002.13;;;20.38;80.15
50430;BME280;36359;41.556;-8.418;2023-05-25T00:18:39;99999.56;;;20.43;79.26
50430;BME280;36359;41.556;-8.418;2023-05-25T00:21:04;99995.91;;;20.49;77.74
50430;BME280;36359;41.556;-8.418;2023-05-25T00:23:31;99993.06;;;20.69;75.97
50430;BME280;36359;41.556;-8.418;2023-05-25T00:25:57;99990.78;;;20.84;74.63
50430;BME280;36359;41.556;-8.418;2023-05-25T00:28:22;99993.78;;;20.83;74.88
50430;BME280;36359;41.556;-8.418;2023-05-25T00:30:48;99997.53;;;20.63;76.11
50430;BME280;36359;41.556;-8.418;2023-05-25T00:33:14;99993.50;;;20.66;75.43
50430;BME280;36359;41.556;-8.418;2023-05-25T00:35:40;100001.63;;;20.86;74.08
50430;BME280;36359;41.556;-8.418;2023-05-25T00:38:11;100002.28;;;20.81;74.62
50430;BME280;36359;41.556;-8.418;2023-05-25T00:40:36;100004.19;;;20.81;75.03
50430;BME280;36359;41.556;-8.418;2023-05-25T00:43:03;99993.63;;;20.78;75.72
50430;BME280;36359;41.556;-8.418;2023-05-25T00:45:28;100003.06;;;20.63;76.13
50430;BME280;36359;41.556;-8.418;2023-05-25T00:47:54;99998.50;;;20.44;77.15
50430;BME280;36359;41.556;-8.418;2023-05-25T00:50:21;99999.63;;;20.68;76.68
50430;BME280;36359;41.556;-8.418;2023-05-25T00:52:54;100001.94;;;20.96;75.10
50430;BME280;36359;41.556;-8.418;2023-05-25T00:55:22;100000.66;;;20.74;76.35
50430;BME280;36359;41.556;-8.418;2023-05-25T00:57:50;100004.13;;;20.62;76.92
50430;BME280;36359;41.556;-8.418;2023-05-25T01:00:16;100006.31;;;20.54;77.49
50430;BME280;36359;41.556;-8.418;2023-05-25T01:02:43;100010.53;;;20.81;76.11
50430;BME280;36359;41.556;-8.418;2023-05-25T01:05:09;100000.75;;;20.60;76.76
50430;BME280;36359;41.556;-8.418;2023-05-25T01:07:36;99999.00;;;20.66;76.42
50430;BME280;36359;41.556;-8.418;2023-05-25T01:10:04;100000.25;;;20.70;75.63
50430;BME280;36359;41.556;-8.418;2023-05-25T01:15:02;99994.78;;;20.63;75.56
50430;BME280;36359;41.556;-8.418;2023-05-25T01:17:28;100000.81;;;20.79;75.19
50430;BME280;36359;41.556;-8.418;2023-05-25T01:19:54;99998.56;;;20.69;76.17
50430;BME280;36359;41.556;-8.418;2023-05-25T01:25:24;100005.06;;;20.43;77.44
50430;BME280;36359;41.556;-8.418;2023-05-25T01:27:53;100001.25;;;20.44;77.39
50430;BME280;36359;41.556;-8.418;2023-05-25T01:30:22;100001.69;;;20.41;77.38
50430;BME280;36359;41.556;-8.418;2023-05-25T01:32:49;100005.13;;;20.36;77.57
50430;BME280;36359;41.556;-8.418;2023-05-25T01:35:15;100010.88;;;20.67;75.52
50430;BME280;36359;41.556;-8.418;2023-05-25T01:37:44;100009.78;;;20.68;76.11
50430;BME280;36359;41.556;-8.418;2023-05-25T01:40:10;100013.00;;;20.64;76.33
50430;BME280;36359;41.556;-8.418;2023-05-25T01:42:36;100010.31;;;20.51;77.01
50430;BME280;36359;41.556;-8.418;2023-05-25T01:45:03;100008.59;;;20.25;77.87
50430;BME280;36359;41.556;-8.418;2023-05-25T01:47:58;100001.44;;;20.11;78.77
50430;BME280;36359;41.556;-8.418;2023-05-25T01:50:22;100007.19;;;20.41;76.99
50430;BME280;36359;41.556;-8.418;2023-05-25T01:52:58;99998.94;;;20.09;77.45
50430;BME280;36359;41.556;-8.418;2023-05-25T01:55:38;100014.03;;;20.32;75.78
50430;BME280;36359;41.556;-8.418;2023-05-25T01:58:06;100004.59;;;20.21;76.35
50430;BME280;36359;41.556;-8.418;2023-05-25T02:00:32;100009.13;;;20.40;76.15
50430;BME280;36359;41.556;-8.418;2023-05-25T02:02:59;100011.00;;;20.53;75.79
50430;BME280;36359;41.556;-8.418;2023-05-25T02:05:27;100018.81;;;20.56;75.43
50430;BME280;36359;41.556;-8.418;2023-05-25T02:07:53;100009.03;;;20.22;78.28
50430;BME280;36359;41.556;-8.418;2023-05-25T02:10:18;100011.88;;;20.40;75.57
50430;BME280;36359;41.556;-8.418;2023-05-25T02:12:44;100016.59;;;20.33;77.03
50430;BME280;36359;41.556;-8.418;2023-05-25T02:15:10;100016.19;;;20.30;77.42
50430;BME280;36359;41.556;-8.418;2023-05-25T02:17:36;100009.03;;;20.22;76.67
50430;BME280;36359;41.556;-8.418;2023-05-25T02:20:02;100013.84;;;19.95;76.87
50430;BME280;36359;41.556;-8.418;2023-05-25T02:22:29;100013.69;;;20.22;76.11
50430;BME280;36359;41.556;-8.418;2023-05-25T02:24:55;100015.38;;;20.23;76.63
50430;BME280;36359;41.556;-8.418;2023-05-25T02:27:21;100012.25;;;20.12;77.21
50430;BME280;36359;41.556;-8.418;2023-05-25T02:29:46;100016.00;;;20.25;76.39
50430;BME280;36359;41.556;-8.418;2023-05-25T02:32:12;100012.38;;;20.31;75.67
50430;BME280;36359;41.556;-8.418;2023-05-25T02:34:37;100011.47;;;20.37;75.54
50430;BME280;36359;41.556;-8.418;2023-05-25T02:37:04;100015.13;;;20.31;75.82
50430;BME280;36359;41.556;-8.418;2023-05-25T02:39:30;100011.16;;;20.20;75.77
50430;BME280;36359;41.556;-8.418;2023-05-25T02:41:57;100014.75;;;20.20;75.26
50430;BME280;36359;41.556;-8.418;2023-05-25T02:44:24;100009.94;;;20.09;75.88
50430;BME280;36359;41.556;-8.418;2023-05-25T02:46:50;100003.59;;;20.40;74.32
50430;BME280;36359;41.556;-8.418;2023-05-25T02:49:16;100009.81;;;20.29;75.13
50430;BME280;36359;41.556;-8.418;2023-05-25T02:51:41;100013.94;;;20.13;75.50
50430;BME280;36359;41.556;-8.418;2023-05-25T02:54:07;100002.97;;;20.07;75.91
50430;BME280;36359;41.556;-8.418;2023-05-25T02:56:33;100006.22;;;19.90;75.98
50430;BME280;36359;41.556;-8.418;2023-05-25T02:59:00;100011.75;;;19.84;75.81
50430;BME280;36359;41.556;-8.418;2023-05-25T03:01:29;100008.88;;;19.52;77.24
50430;BME280;36359;41.556;-8.418;2023-05-25T03:03:55;100007.53;;;19.81;76.17
50430;BME280;36359;41.556;-8.418;2023-05-25T03:06:24;100010.16;;;20.08;74.86
50430;BME280;36359;41.556;-8.418;2023-05-25T03:08:55;100008.31;;;20.33;73.51
50430;BME280;36359;41.556;-8.418;2023-05-25T03:11:20;100008.59;;;20.25;73.12
50430;BME280;36359;41.556;-8.418;2023-05-25T03:13:47;100012.91;;;20.08;73.38
50430;BME280;36359;41.556;-8.418;2023-05-25T03:16:13;100013.59;;;20.03;73.18
50430;BME280;36359;41.556;-8.418;2023-05-25T03:18:39;100012.44;;;20.17;72.96
50430;BME280;36359;41.556;-8.418;2023-05-25T03:21:04;100018.50;;;19.88;73.05
50430;BME280;36359;41.556;-8.418;2023-05-25T03:23:31;100015.38;;;20.23;72.05
50430;BME280;36359;41.556;-8.418;2023-05-25T03:25:57;100014.47;;;20.29;71.37
50430;BME280;36359;41.556;-8.418;2023-05-25T03:28:23;100009.09;;;20.09;71.78
50430;BME280;36359;41.556;-8.418;2023-05-25T03:30:49;100013.75;;;20.08;71.83
50430;BME280;36359;41.556;-8.418;2023-05-25T03:33:14;100011.56;;;19.79;72.31
50430;BME280;36359;41.556;-8.418;2023-05-25T03:35:44;100009.38;;;19.94;72.22
50430;BME280;36359;41.556;-8.418;2023-05-25T03:38:10;100005.81;;;19.87;72.37
50430;BME280;36359;41.556;-8.418;2023-05-25T03:40:35;100009.75;;;20.04;70.64
50430;BME280;36359;41.556;-8.418;2023-05-25T03:43:01;100009.38;;;19.94;70.73
50430;BME280;36359;41.556;-8.418;2023-05-25T03:45:27;100004.53;;;19.89;70.01
50430;BME280;36359;41.556;-8.418;2023-05-25T03:47:52;100014.19;;;20.05;66.75
50430;BME280;36359;41.556;-8.418;2023-05-25T03:50:19;100007.22;;;20.03;66.60
50430;BME280;36359;41.556;-8.418;2023-05-25T03:52:45;100015.94;;;19.93;68.36
50430;BME280;36359;41.556;-8.418;2023-05-25T03:55:11;100009.66;;;19.86;69.37
50430;BME280;36359;41.556;-8.418;2023-05-25T03:57:39;100016.16;;;19.98;68.23
50430;BME280;36359;41.556;-8.418;2023-05-25T04:00:05;100016.19;;;19.85;68.53
50430;BME280;36359;41.556;-8.418;2023-05-25T04:02:38;100024.16;;;20.00;66.78
50430;BME280;36359;41.556;-8.418;2023-05-25T04:05:04;100014.28;;;19.92;66.87
50430;BME280;36359;41.556;-8.418;2023-05-25T04:07:29;100015.91;;;20.06;67.15
50430;BME280;36359;41.556;-8.418;2023-05-25T04:09:57;100014.34;;;19.72;67.73
50430;BME280;36359;41.556;-8.418;2023-05-25T04:12:24;100012.91;;;19.56;67.90
50430;BME280;36359;41.556;-8.418;2023-05-25T04:14:49;100018.81;;;20.18;70.06
50430;BME280;36359;41.556;-8.418;2023-05-25T04:17:16;100019.63;;;19.73;69.67
50430;BME280;36359;41.556;-8.418;2023-05-25T04:19:43;100020.94;;;19.51;73.69
50430;BME280;36359;41.556;-8.418;2023-05-25T04:22:08;100018.91;;;19.00;81.92
50430;BME280;36359;41.556;-8.418;2023-05-25T04:24:34;100022.50;;;19.14;83.10
50430;BME280;36359;41.556;-8.418;2023-05-25T04:27:00;100018.69;;;19.08;84.23
50430;BME280;36359;41.556;-8.418;2023-05-25T04:29:27;100027.13;;;18.73;86.16
50430;BME280;36359;41.556;-8.418;2023-05-25T04:32:10;100029.69;;;19.01;83.65
50430;BME280;36359;41.556;-8.418;2023-05-25T04:34:54;100033.03;;;19.37;81.13
50430;BME280;36359;41.556;-8.418;2023-05-25T04:37:31;100033.41;;;19.67;76.90
50430;BME280;36359;41.556;-8.418;2023-05-25T04:39:58;100036.66;;;19.31;77.71
50430;BME280;36359;41.556;-8.418;2023-05-25T04:42:24;100035.97;;;19.35;74.67
50430;BME280;36359;41.556;-8.418;2023-05-25T04:44:52;100032.19;;;19.43;71.22
50430;BME280;36359;41.556;-8.418;2023-05-25T04:47:21;100026.16;;;19.79;67.96
50430;BME280;36359;41.556;-8.418;2023-05-25T04:49:46;100027.28;;;19.71;64.73
50430;BME280;36359;41.556;-8.418;2023-05-25T04:52:12;100031.66;;;19.79;64.23
50430;BME280;36359;41.556;-8.418;2023-05-25T04:54:37;100031.22;;;19.82;63.90
50430;BME280;36359;41.556;-8.418;2023-05-25T04:57:03;100028.47;;;19.82;63.27
50430;BME280;36359;41.556;-8.418;2023-05-25T04:59:30;100034.16;;;19.94;62.41
50430;BME280;36359;41.556;-8.418;2023-05-25T05:01:56;100032.22;;;20.01;62.64
50430;BME280;36359;41.556;-8.418;2023-05-25T05:04:21;100030.09;;;20.03;60.82
50430;BME280;36359;41.556;-8.418;2023-05-25T05:06:48;100033.47;;;20.05;60.54
50430;BME280;36359;41.556;-8.418;2023-05-25T05:09:17;100034.03;;;20.20;61.13
50430;BME280;36359;41.556;-8.418;2023-05-25T05:11:43;100040.34;;;20.28;60.72
50430;BME280;36359;41.556;-8.418;2023-05-25T05:14:11;100047.09;;;20.32;60.40
50430;BME280;36359;41.556;-8.418;2023-05-25T05:16:38;100044.78;;;20.29;59.74
50430;BME280;36359;41.556;-8.418;2023-05-25T05:19:04;100042.41;;;20.39;58.38
50430;BME280;36359;41.556;-8.418;2023-05-25T05:21:29;100050.69;;;20.39;58.52
50430;BME280;36359;41.556;-8.418;2023-05-25T05:23:55;100047.75;;;20.34;64.22
50430;BME280;36359;41.556;-8.418;2023-05-25T05:26:21;100046.53;;;19.71;69.22
50430;BME280;36359;41.556;-8.418;2023-05-25T05:28:47;100047.38;;;19.72;68.27
50430;BME280;36359;41.556;-8.418;2023-05-25T05:31:13;100045.63;;;19.84;61.90
50430;BME280;36359;41.556;-8.418;2023-05-25T05:33:41;100050.53;;;20.20;60.07
50430;BME280;36359;41.556;-8.418;2023-05-25T05:36:07;100056.44;;;20.31;58.95
50430;BME280;36359;41.556;-8.418;2023-05-25T05:38:34;100057.66;;;20.41;59.16
50430;BME280;36359;41.556;-8.418;2023-05-25T05:41:00;100056.34;;;20.44;58.72
50430;BME280;36359;41.556;-8.418;2023-05-25T05:43:27;100065.34;;;20.33;60.71
50430;BME280;36359;41.556;-8.418;2023-05-25T05:45:52;100064.47;;;20.39;58.46
50430;BME280;36359;41.556;-8.418;2023-05-25T05:48:18;100061.03;;;20.43;58.40
50430;BME280;36359;41.556;-8.418;2023-05-25T05:50:43;100050.44;;;20.47;62.37
50430;BME280;36359;41.556;-8.418;2023-05-25T05:53:11;100044.16;;;20.33;63.11
50430;BME280;36359;41.556;-8.418;2023-05-25T05:55:36;100058.09;;;20.38;61.47
50430;BME280;36359;41.556;-8.418;2023-05-25T05:58:02;100050.00;;;20.12;66.63
50430;BME280;36359;41.556;-8.418;2023-05-25T06:00:28;100051.59;;;19.61;70.42
50430;BME280;36359;41.556;-8.418;2023-05-25T06:02:53;100053.56;;;19.27;74.18
50430;BME280;36359;41.556;-8.418;2023-05-25T06:05:22;100057.56;;;19.65;72.00
50430;BME280;36359;41.556;-8.418;2023-05-25T06:07:50;100056.66;;;19.64;72.11
50430;BME280;36359;41.556;-8.418;2023-05-25T06:10:18;100063.88;;;19.72;72.07
50430;BME280;36359;41.556;-8.418;2023-05-25T06:12:44;100070.47;;;19.71;71.00
50430;BME280;36359;41.556;-8.418;2023-05-25T06:15:10;100062.19;;;19.78;71.83
50430;BME280;36359;41.556;-8.418;2023-05-25T06:17:37;100063.88;;;19.72;71.46
50430;BME280;36359;41.556;-8.418;2023-05-25T06:20:03;100060.09;;;19.53;70.97
50430;BME280;36359;41.556;-8.418;2023-05-25T06:22:29;100060.31;;;19.65;71.53
50430;BME280;36359;41.556;-8.418;2023-05-25T06:24:56;100056.19;;;19.94;70.19
50430;BME280;36359;41.556;-8.418;2023-05-25T06:27:21;100062.03;;;20.11;69.82
50430;BME280;36359;41.556;-8.418;2023-05-25T06:29:47;100065.31;;;20.39;66.61
50430;BME280;36359;41.556;-8.418;2023-05-25T06:32:13;100079.66;;;20.55;64.81
50430;BME280;36359;41.556;-8.418;2023-05-25T06:34:39;100076.72;;;20.81;65.20
50430;BME280;36359;41.556;-8.418;2023-05-25T06:37:05;100084.06;;;20.94;63.80
50430;BME280;36359;41.556;-8.418;2023-05-25T06:39:31;100085.63;;;21.08;61.74
50430;BME280;36359;41.556;-8.418;2023-05-25T06:41:57;100086.06;;;21.05;62.20
50430;BME280;36359;41.556;-8.418;2023-05-25T06:44:28;100092.03;;;21.02;62.23
50430;BME280;36359;41.556;-8.418;2023-05-25T06:46:54;100086.44;;;21.16;61.81
50430;BME280;36359;41.556;-8.418;2023-05-25T06:49:19;100089.66;;;21.13;61.89
50430;BME280;36359;41.556;-8.418;2023-05-25T06:51:45;100079.00;;;21.16;61.61
50430;BME280;36359;41.556;-8.418;2023-05-25T06:54:13;100088.34;;;21.15;60.27
50430;BME280;36359;41.556;-8.418;2023-05-25T06:56:39;100089.50;;;21.26;60.10
50430;BME280;36359;41.556;-8.418;2023-05-25T06:59:05;100091.69;;;21.49;59.24
50430;BME280;36359;41.556;-8.418;2023-05-25T07:01:30;100093.91;;;21.59;58.72
50430;BME280;36359;41.556;-8.418;2023-05-25T07:03:56;100099.31;;;21.47;68.07
50430;BME280;36359;41.556;-8.418;2023-05-25T07:06:21;100108.78;;;21.58;68.36
50430;BME280;36359;41.556;-8.418;2023-05-25T07:08:47;100109.09;;;21.18;71.94
50430;BME280;36359;41.556;-8.418;2023-05-25T07:11:13;100116.41;;;21.37;70.93
50430;BME280;36359;41.556;-8.418;2023-05-25T07:13:39;100114.47;;;21.13;71.64
50430;BME280;36359;41.556;-8.418;2023-05-25T07:16:05;100111.09;;;21.10;70.62
50430;BME280;36359;41.556;-8.418;2023-05-25T07:18:33;100112.47;;;21.51;68.72
50430;BME280;36359;41.556;-8.418;2023-05-25T07:20:59;100110.53;;;21.95;64.62
50430;BME280;36359;41.556;-8.418;2023-05-25T07:23:25;100118.50;;;22.04;67.47
50430;BME280;36359;41.556;-8.418;2023-05-25T07:25:51;100121.84;;;22.06;66.79
50430;BME280;36359;41.556;-8.418;2023-05-25T07:28:20;100120.66;;;22.20;65.16
50430;BME280;36359;41.556;-8.418;2023-05-25T07:30:46;100127.63;;;22.59;60.07
50430;BME280;36359;41.556;-8.418;2023-05-25T07:33:12;100133.34;;;22.88;62.22
50430;BME280;36359;41.556;-8.418;2023-05-25T07:35:37;100129.16;;;23.16;61.42
50430;BME280;36359;41.556;-8.418;2023-05-25T07:38:03;100126.34;;;22.74;67.34
50430;BME280;36359;41.556;-8.418;2023-05-25T07:40:29;100122.03;;;22.48;64.68
50430;BME280;36359;41.556;-8.418;2023-05-25T07:42:54;100126.34;;;22.74;64.28
50430;BME280;36359;41.556;-8.418;2023-05-25T07:45:20;100132.75;;;22.56;67.12
50430;BME280;36359;41.556;-8.418;2023-05-25T07:47:46;100132.34;;;22.22;63.31
50430;BME280;36359;41.556;-8.418;2023-05-25T07:50:12;100139.53;;;22.05;68.08
50430;BME280;36359;41.556;-8.418;2023-05-25T07:52:37;100139.22;;;21.94;69.58
50430;BME280;36359;41.556;-8.418;2023-05-25T07:55:04;100143.38;;;22.04;67.11
50430;BME280;36359;41.556;-8.418;2023-05-25T07:57:30;100146.66;;;21.94;67.79
50430;BME280;36359;41.556;-8.418;2023-05-25T07:59:56;100148.06;;;22.03;66.59
50430;BME280;36359;41.556;-8.418;2023-05-25T08:02:21;100155.28;;;22.22;64.00
50430;BME280;36359;41.556;-8.418;2023-05-25T08:04:47;100157.94;;;22.66;61.91
50430;BME280;36359;41.556;-8.418;2023-05-25T08:07:12;100157.13;;;22.96;60.73
50430;BME280;36359;41.556;-8.418;2023-05-25T08:09:38;100158.69;;;22.73;62.42
50430;BME280;36359;41.556;-8.418;2023-05-25T08:12:03;100159.34;;;23.17;61.50
50430;BME280;36359;41.556;-8.418;2023-05-25T08:14:29;100166.03;;;23.40;59.74
50430;BME280;36359;41.556;-8.418;2023-05-25T08:17:00;100169.03;;;23.50;59.09
50430;BME280;36359;41.556;-8.418;2023-05-25T08:19:27;100170.97;;;23.61;61.59
50430;BME280;36359;41.556;-8.418;2023-05-25T08:21:55;100162.56;;;23.79;60.37
50430;BME280;36359;41.556;-8.418;2023-05-25T08:24:21;100171.97;;;23.78;59.04
50430;BME280;36359;41.556;-8.418;2023-05-25T08:26:47;100173.19;;;23.83;58.21
50430;BME280;36359;41.556;-8.418;2023-05-25T08:29:13;100171.84;;;23.97;58.01
50430;BME280;36359;41.556;-8.418;2023-05-25T08:31:38;100162.31;;;24.16;58.02
50430;BME280;36359;41.556;-8.418;2023-05-25T08:34:06;100165.56;;;24.25;61.54
50430;BME280;36359;41.556;-8.418;2023-05-25T08:39:00;100159.28;;;24.41;59.94
50430;BME280;36359;41.556;-8.418;2023-05-25T08:41:26;100159.59;;;24.57;59.83
50430;BME280;36359;41.556;-8.418;2023-05-25T08:43:52;100168.13;;;24.67;58.32
50430;BME280;36359;41.556;-8.418;2023-05-25T08:46:27;100171.13;;;24.77;59.30
50430;BME280;36359;41.556;-8.418;2023-05-25T08:48:55;100178.56;;;24.88;58.25
50430;BME280;36359;41.556;-8.418;2023-05-25T08:51:23;100165.03;;;24.92;56.70
50430;BME280;36359;41.556;-8.418;2023-05-25T08:53:48;100173.34;;;24.92;57.90
50430;BME280;36359;41.556;-8.418;2023-05-25T08:58:45;100163.41;;;24.96;56.91
50430;BME280;36359;41.556;-8.418;2023-05-25T09:01:11;100164.13;;;25.03;56.87
50430;BME280;36359;41.556;-8.418;2023-05-25T09:03:39;100169.38;;;25.17;57.70
50430;BME280;36359;41.556;-8.418;2023-05-25T09:06:05;100169.47;;;25.22;56.63
50430;BME280;36359;41.556;-8.418;2023-05-25T09:08:31;100173.28;;;25.04;54.42
50430;BME280;36359;41.556;-8.418;2023-05-25T09:10:57;100169.75;;;25.08;53.26
50430;BME280;36359;41.556;-8.418;2023-05-25T09:13:23;100168.97;;;25.25;55.10
50430;BME280;36359;41.556;-8.418;2023-05-25T09:15:56;100174.13;;;25.04;51.87
50430;BME280;36359;41.556;-8.418;2023-05-25T09:18:24;100166.59;;;25.17;52.91
50430;BME280;36359;41.556;-8.418;2023-05-25T09:20:57;100177.50;;;25.06;50.24
50430;BME280;36359;41.556;-8.418;2023-05-25T09:23:36;100175.63;;;24.95;52.19
50430;BME280;36359;41.556;-8.418;2023-05-25T09:26:08;100174.81;;;25.11;51.51
50430;BME280;36359;41.556;-8.418;2023-05-25T09:28:40;100168.47;;;25.28;53.32
50430;BME280;36359;41.556;-8.418;2023-05-25T09:31:09;100169.81;;;25.25;51.27
50430;BME280;36359;41.556;-8.418;2023-05-25T09:33:35;100175.81;;;25.34;52.61
50430;BME280;36359;41.556;-8.418;2023-05-25T09:36:02;100174.88;;;25.45;51.38
50430;BME280;36359;41.556;-8.418;2023-05-25T09:38:28;100173.69;;;25.58;51.60
50430;BME280;36359;41.556;-8.418;2023-05-25T09:40:54;100172.19;;;25.67;49.77
50430;BME280;36359;41.556;-8.418;2023-05-25T09:43:20;100177.34;;;25.92;50.61
50430;BME280;36359;41.556;-8.418;2023-05-25T09:45:55;100172.38;;;25.94;50.79
50430;BME280;36359;41.556;-8.418;2023-05-25T09:48:21;100177.63;;;25.79;48.67
50430;BME280;36359;41.556;-8.418;2023-05-25T09:50:47;100169.84;;;25.93;49.68
50430;BME280;36359;41.556;-8.418;2023-05-25T09:53:12;100172.50;;;26.04;51.49
50430;BME280;36359;41.556;-8.418;2023-05-25T09:55:38;100174.19;;;26.05;49.42
50430;BME280;36359;41.556;-8.418;2023-05-25T09:58:04;100169.00;;;25.92;47.70
50430;BME280;36359;41.556;-8.418;2023-05-25T10:00:30;100174.69;;;26.02;47.16
50430;BME280;36359;41.556;-8.418;2023-05-25T10:02:55;100160.00;;;25.68;47.09
50430;BME280;36359;41.556;-8.418;2023-05-25T10:05:21;100169.81;;;25.76;48.38
50430;BME280;36359;41.556;-8.418;2023-05-25T10:07:46;100156.78;;;25.93;52.79
50430;BME280;36359;41.556;-8.418;2023-05-25T10:10:14;100160.00;;;26.24;48.05
50430;BME280;36359;41.556;-8.418;2023-05-25T10:12:40;100155.59;;;26.28;49.63
50430;BME280;36359;41.556;-8.418;2023-05-25T10:15:06;100159.28;;;26.34;47.24
50430;BME280;36359;41.556;-8.418;2023-05-25T10:17:39;100153.34;;;26.25;48.89
50430;BME280;36359;41.556;-8.418;2023-05-25T10:20:12;100154.34;;;26.41;48.42
50430;BME280;36359;41.556;-8.418;2023-05-25T10:25:37;100152.56;;;26.73;46.51
50430;BME280;36359;41.556;-8.418;2023-05-25T10:28:25;100145.97;;;26.80;49.35
50430;BME280;36359;41.556;-8.418;2023-05-25T10:30:52;100147.84;;;26.74;46.91
50430;BME280;36359;41.556;-8.418;2023-05-25T10:33:19;100150.78;;;26.62;46.88
50430;BME280;36359;41.556;-8.418;2023-05-25T10:35:45;100144.91;;;26.20;46.92
50430;BME280;36359;41.556;-8.418;2023-05-25T10:38:11;100147.19;;;26.23;47.45
50430;BME280;36359;41.556;-8.418;2023-05-25T10:40:37;100147.28;;;25.89;47.02
50430;BME280;36359;41.556;-8.418;2023-05-25T10:43:04;100157.66;;;26.16;47.93
50430;BME280;36359;41.556;-8.418;2023-05-25T10:45:30;100163.91;;;26.67;48.59
50430;BME280;36359;41.556;-8.418;2023-05-25T10:47:56;100164.94;;;26.83;45.50
50430;BME280;36359;41.556;-8.418;2023-05-25T10:50:25;100167.38;;;26.79;44.70
50430;BME280;36359;41.556;-8.418;2023-05-25T10:55:41;100156.75;;;26.76;46.96
50430;BME280;36359;41.556;-8.418;2023-05-25T10:58:11;100151.94;;;26.66;44.44
50430;BME280;36359;41.556;-8.418;2023-05-25T11:00:38;100152.91;;;26.77;47.48
50430;BME280;36359;41.556;-8.418;2023-05-25T11:03:03;100152.25;;;26.97;46.79
50430;BME280;36359;41.556;-8.418;2023-05-25T11:08:01;100136.50;;;27.08;47.51
50430;BME280;36359;41.556;-8.418;2023-05-25T11:16:17;100146.72;;;27.24;44.87
50430;BME280;36359;41.556;-8.418;2023-05-25T11:18:54;100148.97;;;27.27;45.16
50430;BME280;36359;41.556;-8.418;2023-05-25T11:24:02;100138.31;;;27.19;45.99
50430;BME280;36359;41.556;-8.418;2023-05-25T11:26:32;100139.63;;;27.38;43.51
50430;BME280;36359;41.556;-8.418;2023-05-25T11:28:59;100146.38;;;27.48;42.95
50430;BME280;36359;41.556;-8.418;2023-05-25T11:31:32;100135.88;;;27.60;44.83
50430;BME280;36359;41.556;-8.418;2023-05-25T11:34:01;100138.25;;;27.46;42.67
50430;BME280;36359;41.556;-8.418;2023-05-25T11:36:29;100135.66;;;27.34;42.00
50430;BME280;36359;41.556;-8.418;2023-05-25T11:38:59;100133.09;;;27.28;43.61
50430;BME280;36359;41.556;-8.418;2023-05-25T11:41:29;100134.19;;;27.00;41.90
50430;BME280;36359;41.556;-8.418;2023-05-25T11:44:01;100132.06;;;27.12;43.97
50430;BME280;36359;41.556;-8.418;2023-05-25T11:46:27;100131.91;;;27.18;41.87
50430;BME280;36359;41.556;-8.418;2023-05-25T11:48:53;100135.34;;;27.31;41.20
50430;BME280;36359;41.556;-8.418;2023-05-25T11:51:20;100136.06;;;27.16;40.53
50430;BME280;36359;41.556;-8.418;2023-05-25T11:53:46;100131.81;;;27.40;42.10
50430;BME280;36359;41.556;-8.418;2023-05-25T11:56:13;100130.19;;;27.45;41.20
50430;BME280;36359;41.556;-8.418;2023-05-25T11:58:40;100118.31;;;27.59;41.77
50430;BME280;36359;41.556;-8.418;2023-05-25T12:01:15;100122.09;;;27.80;40.76
50430;BME280;36359;41.556;-8.418;2023-05-25T12:03:43;100115.28;;;27.66;42.02
50430;BME280;36359;41.556;-8.418;2023-05-25T12:06:21;100111.69;;;27.71;41.53
50430;BME280;36359;41.556;-8.418;2023-05-25T12:08:47;100112.41;;;27.51;41.95
50430;BME280;36359;41.556;-8.418;2023-05-25T12:11:13;100109.34;;;27.90;42.28
50430;BME280;36359;41.556;-8.418;2023-05-25T12:13:40;100111.47;;;27.77;40.93
50430;BME280;36359;41.556;-8.418;2023-05-25T12:16:10;100103.94;;;27.78;40.91
50430;BME280;36359;41.556;-8.418;2023-05-25T12:18:37;100104.13;;;28.03;40.89
50430;BME280;36359;41.556;-8.418;2023-05-25T12:21:03;100095.75;;;28.03;40.91
50430;BME280;36359;41.556;-8.418;2023-05-25T12:23:32;100087.72;;;28.17;41.69
50430;BME280;36359;41.556;-8.418;2023-05-25T12:26:07;100088.63;;;28.38;42.58
50430;BME280;36359;41.556;-8.418;2023-05-25T12:28:32;100085.41;;;28.72;40.83
50430;BME280;36359;41.556;-8.418;2023-05-25T12:30:58;100070.06;;;28.59;39.89
50430;BME280;36359;41.556;-8.418;2023-05-25T12:33:24;100077.59;;;28.79;39.17
50430;BME280;36359;41.556;-8.418;2023-05-25T12:35:49;100070.41;;;29.09;41.27
50430;BME280;36359;41.556;-8.418;2023-05-25T12:38:16;100070.66;;;28.92;42.26
50430;BME280;36359;41.556;-8.418;2023-05-25T12:40:42;100068.19;;;29.11;40.31
50430;BME280;36359;41.556;-8.418;2023-05-25T12:43:08;100064.78;;;28.98;39.96
50430;BME280;36359;41.556;-8.418;2023-05-25T12:45:39;100062.56;;;28.95;40.66
50430;BME280;36359;41.556;-8.418;2023-05-25T12:48:06;100052.09;;;28.40;40.45
50430;BME280;36359;41.556;-8.418;2023-05-25T12:50:31;100051.41;;;29.01;40.74
50430;BME280;36359;41.556;-8.418;2023-05-25T12:53:00;100047.47;;;28.86;39.18
50430;BME280;36359;41.556;-8.418;2023-05-25T12:55:27;100036.88;;;28.98;40.32
50430;BME280;36359;41.556;-8.418;2023-05-25T12:57:54;100027.66;;;29.08;40.43
50430;BME280;36359;41.556;-8.418;2023-05-25T13:00:21;100025.69;;;28.98;39.17
50430;BME280;36359;41.556;-8.418;2023-05-25T13:02:48;100026.28;;;29.06;40.20
50430;BME280;36359;41.556;-8.418;2023-05-25T13:05:18;100023.19;;;29.33;39.43
50430;BME280;36359;41.556;-8.418;2023-05-25T13:07:44;100025.44;;;29.36;39.20